sensor_id;sensor_type;location;lat;lon;timestamp;P1;durP1;ratioP1;P2;durP2;ratioP2
59468;SDS011;45277;52.768;18.262;2023-06-10T00:00:15;8.98;;;5.68;;
59468;SDS011;45277;52.768;18.262;2023-06-10T00:02:07;7.43;;;5.00;;
59468;SDS011;45277;52.768;18.262;2023-06-10T00:03:39;6.40;;;5.00;;
59468;SDS011;45277;52.768;18.262;2023-06-10T00:05:11;8.25;;;5.30;;
59468;SDS011;45277;52.768;18.262;2023-06-10T00:06:43;6.93;;;5.28;;
59468;SDS011;45277;52.768;18.262;2023-06-10T00:08:15;8.15;;;5.20;;
59468;SDS011;45277;52.768;18.262;2023-06-10T00:09:50;8.52;;;5.22;;
59468;SDS011;45277;52.768;18.262;2023-06-10T00:11:21;8.52;;;5.28;;
59468;SDS011;45277;52.768;18.262;2023-06-10T00:12:53;7.60;;;5.10;;
59468;SDS011;45277;52.768;18.262;2023-06-10T00:14:25;7.35;;;5.13;;
59468;SDS011;45277;52.768;18.262;2023-06-10T00:15:57;9.02;;;5.10;;
59468;SDS011;45277;52.768;18.262;2023-06-10T00:17:28;7.47;;;5.05;;
59468;SDS011;45277;52.768;18.262;2023-06-10T00:19:00;9.85;;;5.05;;
59468;SDS011;45277;52.768;18.262;2023-06-10T00:20:33;8.02;;;4.97;;
59468;SDS011;45277;52.768;18.262;2023-06-10T00:22:07;6.82;;;4.82;;
59468;SDS011;45277;52.768;18.262;2023-06-10T00:23:40;8.15;;;5.07;;
59468;SDS011;45277;52.768;18.262;2023-06-10T00:25:11;8.25;;;5.32;;
59468;SDS011;45277;52.768;18.262;2023-06-10T00:26:43;7.03;;;5.68;;
59468;SDS011;45277;52.768;18.262;2023-06-10T00:28:14;8.13;;;5.18;;
59468;SDS011;45277;52.768;18.262;2023-06-10T00:29:46;6.22;;;4.80;;
59468;SDS011;45277;52.768;18.262;2023-06-10T00:31:17;8.05;;;5.00;;
59468;SDS011;45277;52.768;18.262;2023-06-10T00:32:49;7.97;;;5.13;;
59468;SDS011;45277;52.768;18.262;2023-06-10T00:34:20;7.35;;;5.18;;
59468;SDS011;45277;52.768;18.262;2023-06-10T00:35:52;10.80;;;5.15;;
59468;SDS011;45277;52.768;18.262;2023-06-10T00:37:23;11.38;;;4.50;;
59468;SDS011;45277;52.768;18.262;2023-06-10T00:38:55;6.10;;;4.85;;
59468;SDS011;45277;52.768;18.262;2023-06-10T00:40:27;8.45;;;5.38;;
59468;SDS011;45277;52.768;18.262;2023-06-10T00:41:58;7.22;;;5.10;;
59468;SDS011;45277;52.768;18.262;2023-06-10T00:43:29;8.77;;;4.93;;
59468;SDS011;45277;52.768;18.262;2023-06-10T00:45:01;7.38;;;5.13;;
59468;SDS011;45277;52.768;18.262;2023-06-10T00:46:32;7.35;;;5.18;;
59468;SDS011;45277;52.768;18.262;2023-06-10T00:48:05;8.80;;;5.28;;
59468;SDS011;45277;52.768;18.262;2023-06-10T00:49:36;8.95;;;4.93;;
59468;SDS011;45277;52.768;18.262;2023-06-10T00:51:08;7.93;;;5.10;;
59468;SDS011;45277;52.768;18.262;2023-06-10T00:52:39;7.22;;;5.45;;
59468;SDS011;45277;52.768;18.262;2023-06-10T00:54:15;9.13;;;5.15;;
59468;SDS011;45277;52.768;18.262;2023-06-10T00:55:47;8.43;;;5.65;;
59468;SDS011;45277;52.768;18.262;2023-06-10T00:57:18;6.75;;;5.25;;
59468;SDS011;45277;52.768;18.262;2023-06-10T00:58:51;7.60;;;5.20;;
59468;SDS011;45277;52.768;18.262;2023-06-10T01:00:23;6.40;;;5.30;;
59468;SDS011;45277;52.768;18.262;2023-06-10T01:01:54;7.25;;;5.22;;
59468;SDS011;45277;52.768;18.262;2023-06-10T01:03:26;7.00;;;5.32;;
59468;SDS011;45277;52.768;18.262;2023-06-10T01:04:59;7.93;;;5.65;;
59468;SDS011;45277;52.768;18.262;2023-06-10T01:08:33;7.75;;;5.95;;
59468;SDS011;45277;52.768;18.262;2023-06-10T01:12:05;11.40;;;5.20;;
59468;SDS011;45277;52.768;18.262;2023-06-10T01:13:59;7.03;;;5.43;;
59468;SDS011;45277;52.768;18.262;2023-06-10T01:15:31;7.50;;;5.22;;
59468;SDS011;45277;52.768;18.262;2023-06-10T01:17:03;11.73;;;5.57;;
59468;SDS011;45277;52.768;18.262;2023-06-10T01:18:36;9.00;;;5.68;;
59468;SDS011;45277;52.768;18.262;2023-06-10T01:20:09;11.30;;;5.72;;
59468;SDS011;45277;52.768;18.262;2023-06-10T01:21:42;6.97;;;4.90;;
59468;SDS011;45277;52.768;18.262;2023-06-10T01:23:19;8.13;;;5.07;;
59468;SDS011;45277;52.768;18.262;2023-06-10T01:24:51;8.20;;;5.20;;
59468;SDS011;45277;52.768;18.262;2023-06-10T01:26:24;9.40;;;5.50;;
59468;SDS011;45277;52.768;18.262;2023-06-10T01:30:08;8.88;;;5.38;;
59468;SDS011;45277;52.768;18.262;2023-06-10T01:32:45;7.70;;;5.20;;
59468;SDS011;45277;52.768;18.262;2023-06-10T01:34:12;9.77;;;5.45;;
59468;SDS011;45277;52.768;18.262;2023-06-10T01:35:47;8.05;;;4.95;;
59468;SDS011;45277;52.768;18.262;2023-06-10T01:37:19;9.15;;;5.20;;
59468;SDS011;45277;52.768;18.262;2023-06-10T01:38:54;11.75;;;5.05;;
59468;SDS011;45277;52.768;18.262;2023-06-10T01:40:27;11.25;;;5.82;;
59468;SDS011;45277;52.768;18.262;2023-06-10T01:41:59;12.65;;;5.63;;
59468;SDS011;45277;52.768;18.262;2023-06-10T01:43:33;8.65;;;5.07;;
59468;SDS011;45277;52.768;18.262;2023-06-10T01:45:05;6.60;;;5.25;;
59468;SDS011;45277;52.768;18.262;2023-06-10T01:46:37;14.90;;;5.43;;
59468;SDS011;45277;52.768;18.262;2023-06-10T01:48:08;9.55;;;5.63;;
59468;SDS011;45277;52.768;18.262;2023-06-10T01:49:40;11.15;;;5.28;;
59468;SDS011;45277;52.768;18.262;2023-06-10T01:51:11;7.90;;;5.55;;
59468;SDS011;45277;52.768;18.262;2023-06-10T01:52:43;10.35;;;6.07;;
59468;SDS011;45277;52.768;18.262;2023-06-10T01:54:14;8.63;;;5.70;;
59468;SDS011;45277;52.768;18.262;2023-06-10T01:55:45;16.15;;;5.75;;
59468;SDS011;45277;52.768;18.262;2023-06-10T01:57:18;10.73;;;5.40;;
59468;SDS011;45277;52.768;18.262;2023-06-10T01:58:49;12.23;;;5.35;;
59468;SDS011;45277;52.768;18.262;2023-06-10T02:00:21;6.47;;;4.70;;
59468;SDS011;45277;52.768;18.262;2023-06-10T02:01:53;7.50;;;4.97;;
59468;SDS011;45277;52.768;18.262;2023-06-10T02:03:24;7.38;;;5.25;;
59468;SDS011;45277;52.768;18.262;2023-06-10T02:04:55;6.70;;;4.97;;
59468;SDS011;45277;52.768;18.262;2023-06-10T02:06:28;7.95;;;5.45;;
59468;SDS011;45277;52.768;18.262;2023-06-10T02:07:59;10.32;;;5.13;;
59468;SDS011;45277;52.768;18.262;2023-06-10T02:09:31;10.70;;;5.63;;
59468;SDS011;45277;52.768;18.262;2023-06-10T02:11:05;9.43;;;5.07;;
59468;SDS011;45277;52.768;18.262;2023-06-10T02:12:37;17.25;;;5.03;;
59468;SDS011;45277;52.768;18.262;2023-06-10T02:14:09;9.63;;;5.18;;
59468;SDS011;45277;52.768;18.262;2023-06-10T02:15:40;7.65;;;4.85;;
59468;SDS011;45277;52.768;18.262;2023-06-10T02:17:12;10.65;;;5.38;;
59468;SDS011;45277;52.768;18.262;2023-06-10T02:18:45;9.40;;;5.25;;
59468;SDS011;45277;52.768;18.262;2023-06-10T02:20:17;8.70;;;5.18;;
59468;SDS011;45277;52.768;18.262;2023-06-10T02:21:48;9.55;;;5.35;;
59468;SDS011;45277;52.768;18.262;2023-06-10T02:23:20;10.05;;;5.10;;
59468;SDS011;45277;52.768;18.262;2023-06-10T02:24:52;10.02;;;5.22;;
59468;SDS011;45277;52.768;18.262;2023-06-10T02:26:23;9.10;;;5.15;;
59468;SDS011;45277;52.768;18.262;2023-06-10T02:27:56;12.60;;;4.97;;
59468;SDS011;45277;52.768;18.262;2023-06-10T02:29:28;8.77;;;5.03;;
59468;SDS011;45277;52.768;18.262;2023-06-10T02:30:59;9.10;;;4.97;;
59468;SDS011;45277;52.768;18.262;2023-06-10T02:32:31;7.70;;;4.72;;
59468;SDS011;45277;52.768;18.262;2023-06-10T02:34:03;8.35;;;4.82;;
59468;SDS011;45277;52.768;18.262;2023-06-10T02:35:34;8.38;;;4.97;;
59468;SDS011;45277;52.768;18.262;2023-06-10T02:37:06;6.80;;;5.20;;
59468;SDS011;45277;52.768;18.262;2023-06-10T02:38:39;8.65;;;5.45;;
59468;SDS011;45277;52.768;18.262;2023-06-10T02:40:11;7.80;;;4.90;;
59468;SDS011;45277;52.768;18.262;2023-06-10T02:41:42;8.00;;;5.30;;
59468;SDS011;45277;52.768;18.262;2023-06-10T02:43:14;9.77;;;5.68;;
59468;SDS011;45277;52.768;18.262;2023-06-10T02:44:45;8.15;;;5.30;;
59468;SDS011;45277;52.768;18.262;2023-06-10T02:46:16;7.82;;;5.22;;
59468;SDS011;45277;52.768;18.262;2023-06-10T02:47:48;7.15;;;4.93;;
59468;SDS011;45277;52.768;18.262;2023-06-10T02:49:20;6.82;;;4.82;;
59468;SDS011;45277;52.768;18.262;2023-06-10T02:50:51;8.07;;;5.15;;
59468;SDS011;45277;52.768;18.262;2023-06-10T02:52:23;6.68;;;5.10;;
59468;SDS011;45277;52.768;18.262;2023-06-10T02:53:54;9.85;;;4.88;;
59468;SDS011;45277;52.768;18.262;2023-06-10T02:55:25;8.95;;;5.00;;
59468;SDS011;45277;52.768;18.262;2023-06-10T02:56:57;9.32;;;4.85;;
59468;SDS011;45277;52.768;18.262;2023-06-10T02:58:28;10.38;;;5.15;;
59468;SDS011;45277;52.768;18.262;2023-06-10T03:00:00;8.27;;;5.18;;
59468;SDS011;45277;52.768;18.262;2023-06-10T03:01:32;9.70;;;4.80;;
59468;SDS011;45277;52.768;18.262;2023-06-10T03:03:05;8.02;;;4.88;;
59468;SDS011;45277;52.768;18.262;2023-06-10T03:04:37;10.73;;;5.05;;
59468;SDS011;45277;52.768;18.262;2023-06-10T03:06:12;14.18;;;5.32;;
59468;SDS011;45277;52.768;18.262;2023-06-10T03:07:44;8.13;;;5.43;;
59468;SDS011;45277;52.768;18.262;2023-06-10T03:09:17;8.88;;;5.15;;
59468;SDS011;45277;52.768;18.262;2023-06-10T03:10:49;7.00;;;4.85;;
59468;SDS011;45277;52.768;18.262;2023-06-10T03:12:20;6.95;;;4.80;;
59468;SDS011;45277;52.768;18.262;2023-06-10T03:13:52;8.40;;;4.88;;
59468;SDS011;45277;52.768;18.262;2023-06-10T03:15:24;8.60;;;5.00;;
59468;SDS011;45277;52.768;18.262;2023-06-10T03:16:56;8.57;;;5.00;;
59468;SDS011;45277;52.768;18.262;2023-06-10T03:18:27;8.48;;;5.05;;
59468;SDS011;45277;52.768;18.262;2023-06-10T03:19:59;8.57;;;5.65;;
59468;SDS011;45277;52.768;18.262;2023-06-10T03:21:30;9.15;;;6.05;;
59468;SDS011;45277;52.768;18.262;2023-06-10T03:23:02;10.05;;;5.15;;
59468;SDS011;45277;52.768;18.262;2023-06-10T03:24:36;8.35;;;4.88;;
59468;SDS011;45277;52.768;18.262;2023-06-10T03:26:10;7.25;;;5.03;;
59468;SDS011;45277;52.768;18.262;2023-06-10T03:27:43;9.95;;;4.97;;
59468;SDS011;45277;52.768;18.262;2023-06-10T03:29:15;6.25;;;4.57;;
59468;SDS011;45277;52.768;18.262;2023-06-10T03:30:46;15.15;;;5.45;;
59468;SDS011;45277;52.768;18.262;2023-06-10T03:32:18;9.80;;;4.40;;
59468;SDS011;45277;52.768;18.262;2023-06-10T03:33:50;10.65;;;4.80;;
59468;SDS011;45277;52.768;18.262;2023-06-10T03:35:21;7.13;;;4.95;;
59468;SDS011;45277;52.768;18.262;2023-06-10T03:36:53;7.82;;;4.80;;
59468;SDS011;45277;52.768;18.262;2023-06-10T03:38:25;8.05;;;5.07;;
59468;SDS011;45277;52.768;18.262;2023-06-10T03:39:56;7.32;;;5.20;;
59468;SDS011;45277;52.768;18.262;2023-06-10T03:41:27;10.27;;;5.15;;
59468;SDS011;45277;52.768;18.262;2023-06-10T03:43:00;8.60;;;4.80;;
59468;SDS011;45277;52.768;18.262;2023-06-10T03:44:34;8.27;;;4.93;;
59468;SDS011;45277;52.768;18.262;2023-06-10T03:46:07;7.60;;;5.20;;
59468;SDS011;45277;52.768;18.262;2023-06-10T03:47:38;11.15;;;5.43;;
59468;SDS011;45277;52.768;18.262;2023-06-10T03:49:11;11.93;;;4.93;;
59468;SDS011;45277;52.768;18.262;2023-06-10T03:50:43;9.07;;;4.90;;
59468;SDS011;45277;52.768;18.262;2023-06-10T03:52:14;13.02;;;5.22;;
59468;SDS011;45277;52.768;18.262;2023-06-10T03:53:45;9.25;;;4.85;;
59468;SDS011;45277;52.768;18.262;2023-06-10T03:55:17;5.70;;;4.10;;
59468;SDS011;45277;52.768;18.262;2023-06-10T03:56:48;9.93;;;4.65;;
59468;SDS011;45277;52.768;18.262;2023-06-10T03:58:20;7.80;;;4.60;;
59468;SDS011;45277;52.768;18.262;2023-06-10T03:59:52;7.03;;;5.00;;
59468;SDS011;45277;52.768;18.262;2023-06-10T04:01:23;6.15;;;4.32;;
59468;SDS011;45277;52.768;18.262;2023-06-10T04:02:55;8.10;;;4.60;;
59468;SDS011;45277;52.768;18.262;2023-06-10T04:04:28;9.00;;;4.80;;
59468;SDS011;45277;52.768;18.262;2023-06-10T04:06:00;9.13;;;4.60;;
59468;SDS011;45277;52.768;18.262;2023-06-10T04:07:33;8.90;;;4.82;;
59468;SDS011;45277;52.768;18.262;2023-06-10T04:09:04;9.13;;;5.57;;
59468;SDS011;45277;52.768;18.262;2023-06-10T04:10:36;9.02;;;4.90;;
59468;SDS011;45277;52.768;18.262;2023-06-10T04:12:08;9.88;;;4.90;;
59468;SDS011;45277;52.768;18.262;2023-06-10T04:13:40;13.73;;;5.20;;
59468;SDS011;45277;52.768;18.262;2023-06-10T04:15:12;8.68;;;5.00;;
59468;SDS011;45277;52.768;18.262;2023-06-10T04:16:44;8.80;;;5.63;;
59468;SDS011;45277;52.768;18.262;2023-06-10T04:18:15;7.25;;;4.63;;
59468;SDS011;45277;52.768;18.262;2023-06-10T04:19:47;7.32;;;4.97;;
59468;SDS011;45277;52.768;18.262;2023-06-10T04:21:18;11.65;;;5.10;;
59468;SDS011;45277;52.768;18.262;2023-06-10T04:22:50;9.77;;;5.40;;
59468;SDS011;45277;52.768;18.262;2023-06-10T04:24:21;10.77;;;5.43;;
59468;SDS011;45277;52.768;18.262;2023-06-10T04:25:53;9.50;;;5.00;;
59468;SDS011;45277;52.768;18.262;2023-06-10T04:27:24;8.85;;;5.15;;
59468;SDS011;45277;52.768;18.262;2023-06-10T04:28:56;6.75;;;4.35;;
59468;SDS011;45277;52.768;18.262;2023-06-10T04:30:28;9.35;;;4.88;;
59468;SDS011;45277;52.768;18.262;2023-06-10T04:31:59;7.20;;;5.45;;
59468;SDS011;45277;52.768;18.262;2023-06-10T04:33:32;14.00;;;4.82;;
59468;SDS011;45277;52.768;18.262;2023-06-10T04:35:04;10.25;;;5.13;;
59468;SDS011;45277;52.768;18.262;2023-06-10T04:36:36;9.32;;;5.10;;
59468;SDS011;45277;52.768;18.262;2023-06-10T04:38:08;11.40;;;4.88;;
59468;SDS011;45277;52.768;18.262;2023-06-10T04:39:39;8.13;;;4.75;;
59468;SDS011;45277;52.768;18.262;2023-06-10T04:41:12;8.10;;;4.65;;
59468;SDS011;45277;52.768;18.262;2023-06-10T04:42:43;6.43;;;4.35;;
59468;SDS011;45277;52.768;18.262;2023-06-10T04:44:15;7.93;;;5.18;;
59468;SDS011;45277;52.768;18.262;2023-06-10T04:45:46;11.65;;;4.90;;
59468;SDS011;45277;52.768;18.262;2023-06-10T04:47:18;8.40;;;4.60;;
59468;SDS011;45277;52.768;18.262;2023-06-10T04:48:49;8.55;;;4.60;;
59468;SDS011;45277;52.768;18.262;2023-06-10T04:50:21;11.18;;;4.47;;
59468;SDS011;45277;52.768;18.262;2023-06-10T04:51:52;11.30;;;4.55;;
59468;SDS011;45277;52.768;18.262;2023-06-10T04:53:24;8.18;;;4.30;;
59468;SDS011;45277;52.768;18.262;2023-06-10T04:54:57;10.15;;;4.97;;
59468;SDS011;45277;52.768;18.262;2023-06-10T04:56:30;9.48;;;4.00;;
59468;SDS011;45277;52.768;18.262;2023-06-10T04:58:01;8.32;;;4.30;;
59468;SDS011;45277;52.768;18.262;2023-06-10T04:59:33;6.68;;;4.22;;
59468;SDS011;45277;52.768;18.262;2023-06-10T05:01:08;9.90;;;3.97;;
59468;SDS011;45277;52.768;18.262;2023-06-10T05:02:39;9.30;;;4.30;;
59468;SDS011;45277;52.768;18.262;2023-06-10T05:04:10;5.50;;;4.00;;
59468;SDS011;45277;52.768;18.262;2023-06-10T05:05:42;6.43;;;4.10;;
59468;SDS011;45277;52.768;18.262;2023-06-10T05:07:13;7.45;;;4.55;;
59468;SDS011;45277;52.768;18.262;2023-06-10T05:08:45;8.60;;;4.05;;
59468;SDS011;45277;52.768;18.262;2023-06-10T05:10:17;10.13;;;4.40;;
59468;SDS011;45277;52.768;18.262;2023-06-10T05:11:48;9.02;;;4.18;;
59468;SDS011;45277;52.768;18.262;2023-06-10T05:13:19;12.18;;;4.68;;
59468;SDS011;45277;52.768;18.262;2023-06-10T05:14:51;6.82;;;3.90;;
59468;SDS011;45277;52.768;18.262;2023-06-10T05:16:22;6.50;;;4.47;;
59468;SDS011;45277;52.768;18.262;2023-06-10T05:17:56;11.25;;;4.50;;
59468;SDS011;45277;52.768;18.262;2023-06-10T05:19:29;7.38;;;4.35;;
59468;SDS011;45277;52.768;18.262;2023-06-10T05:21:00;8.23;;;4.30;;
59468;SDS011;45277;52.768;18.262;2023-06-10T05:22:32;7.97;;;4.05;;
59468;SDS011;45277;52.768;18.262;2023-06-10T05:24:05;18.65;;;4.82;;
59468;SDS011;45277;52.768;18.262;2023-06-10T05:25:37;10.43;;;4.13;;
59468;SDS011;45277;52.768;18.262;2023-06-10T05:27:08;6.28;;;3.63;;
59468;SDS011;45277;52.768;18.262;2023-06-10T05:28:40;34.47;;;4.70;;
59468;SDS011;45277;52.768;18.262;2023-06-10T05:30:11;21.35;;;5.35;;
59468;SDS011;45277;52.768;18.262;2023-06-10T05:31:42;13.45;;;4.30;;
59468;SDS011;45277;52.768;18.262;2023-06-10T05:33:14;8.93;;;4.05;;
59468;SDS011;45277;52.768;18.262;2023-06-10T05:34:45;8.13;;;3.90;;
59468;SDS011;45277;52.768;18.262;2023-06-10T05:36:17;16.40;;;4.07;;
59468;SDS011;45277;52.768;18.262;2023-06-10T05:37:48;10.00;;;4.20;;
59468;SDS011;45277;52.768;18.262;2023-06-10T05:39:20;6.38;;;3.83;;
59468;SDS011;45277;52.768;18.262;2023-06-10T05:40:51;29.65;;;3.85;;
59468;SDS011;45277;52.768;18.262;2023-06-10T05:42:23;22.13;;;4.57;;
59468;SDS011;45277;52.768;18.262;2023-06-10T05:43:54;7.32;;;3.72;;
59468;SDS011;45277;52.768;18.262;2023-06-10T05:45:25;37.75;;;4.57;;
59468;SDS011;45277;52.768;18.262;2023-06-10T05:46:58;11.93;;;3.97;;
59468;SDS011;45277;52.768;18.262;2023-06-10T05:48:29;28.25;;;4.50;;
59468;SDS011;45277;52.768;18.262;2023-06-10T05:50:00;30.95;;;5.25;;
59468;SDS011;45277;52.768;18.262;2023-06-10T05:51:33;12.25;;;3.55;;
59468;SDS011;45277;52.768;18.262;2023-06-10T05:53:04;15.50;;;4.10;;
59468;SDS011;45277;52.768;18.262;2023-06-10T05:54:37;8.32;;;3.90;;
59468;SDS011;45277;52.768;18.262;2023-06-10T05:56:09;8.45;;;3.50;;
59468;SDS011;45277;52.768;18.262;2023-06-10T05:57:41;10.82;;;3.65;;
59468;SDS011;45277;52.768;18.262;2023-06-10T05:59:13;19.63;;;4.10;;
59468;SDS011;45277;52.768;18.262;2023-06-10T06:00:45;10.98;;;3.80;;
59468;SDS011;45277;52.768;18.262;2023-06-10T06:02:16;8.10;;;3.60;;
59468;SDS011;45277;52.768;18.262;2023-06-10T06:03:47;8.65;;;3.67;;
59468;SDS011;45277;52.768;18.262;2023-06-10T06:05:19;14.52;;;3.75;;
59468;SDS011;45277;52.768;18.262;2023-06-10T06:06:50;15.65;;;4.00;;
59468;SDS011;45277;52.768;18.262;2023-06-10T06:08:22;17.33;;;4.60;;
59468;SDS011;45277;52.768;18.262;2023-06-10T06:09:54;8.40;;;4.40;;
59468;SDS011;45277;52.768;18.262;2023-06-10T06:11:25;14.30;;;4.43;;
59468;SDS011;45277;52.768;18.262;2023-06-10T06:12:57;15.18;;;4.30;;
59468;SDS011;45277;52.768;18.262;2023-06-10T06:14:30;6.22;;;3.60;;
59468;SDS011;45277;52.768;18.262;2023-06-10T06:16:02;6.20;;;4.00;;
59468;SDS011;45277;52.768;18.262;2023-06-10T06:17:34;12.70;;;4.35;;
59468;SDS011;45277;52.768;18.262;2023-06-10T06:19:06;9.23;;;4.05;;
59468;SDS011;45277;52.768;18.262;2023-06-10T06:20:37;13.05;;;4.22;;
59468;SDS011;45277;52.768;18.262;2023-06-10T06:22:09;5.82;;;3.97;;
59468;SDS011;45277;52.768;18.262;2023-06-10T06:23:41;9.60;;;3.90;;
59468;SDS011;45277;52.768;18.262;2023-06-10T06:25:12;6.93;;;3.45;;
59468;SDS011;45277;52.768;18.262;2023-06-10T06:26:43;7.88;;;3.92;;
59468;SDS011;45277;52.768;18.262;2023-06-10T06:28:16;12.07;;;4.93;;
59468;SDS011;45277;52.768;18.262;2023-06-10T06:29:48;11.90;;;3.95;;
59468;SDS011;45277;52.768;18.262;2023-06-10T06:31:21;7.75;;;3.42;;
59468;SDS011;45277;52.768;18.262;2023-06-10T06:32:53;6.90;;;3.35;;
59468;SDS011;45277;52.768;18.262;2023-06-10T06:34:24;7.45;;;3.83;;
59468;SDS011;45277;52.768;18.262;2023-06-10T06:35:55;7.95;;;3.83;;
59468;SDS011;45277;52.768;18.262;2023-06-10T06:37:27;6.90;;;3.60;;
59468;SDS011;45277;52.768;18.262;2023-06-10T06:38:58;12.57;;;3.63;;
59468;SDS011;45277;52.768;18.262;2023-06-10T06:40:30;13.02;;;3.75;;
59468;SDS011;45277;52.768;18.262;2023-06-10T06:42:02;11.40;;;4.00;;
59468;SDS011;45277;52.768;18.262;2023-06-10T06:43:33;5.75;;;3.35;;
59468;SDS011;45277;52.768;18.262;2023-06-10T06:45:05;4.97;;;3.67;;
59468;SDS011;45277;52.768;18.262;2023-06-10T06:46:37;8.40;;;3.28;;
59468;SDS011;45277;52.768;18.262;2023-06-10T06:48:08;6.47;;;3.95;;
59468;SDS011;45277;52.768;18.262;2023-06-10T06:49:41;9.02;;;3.50;;
59468;SDS011;45277;52.768;18.262;2023-06-10T06:51:12;10.52;;;3.30;;
59468;SDS011;45277;52.768;18.262;2023-06-10T06:52:44;10.95;;;3.92;;
59468;SDS011;45277;52.768;18.262;2023-06-10T06:54:15;11.70;;;3.83;;
59468;SDS011;45277;52.768;18.262;2023-06-10T06:55:47;4.43;;;3.00;;
59468;SDS011;45277;52.768;18.262;2023-06-10T06:57:18;9.48;;;3.40;;
59468;SDS011;45277;52.768;18.262;2023-06-10T06:58:50;4.18;;;3.50;;
59468;SDS011;45277;52.768;18.262;2023-06-10T07:00:21;12.95;;;4.22;;
59468;SDS011;45277;52.768;18.262;2023-06-10T07:01:53;26.02;;;4.55;;
59468;SDS011;45277;52.768;18.262;2023-06-10T07:03:25;6.93;;;3.40;;
59468;SDS011;45277;52.768;18.262;2023-06-10T07:04:57;5.72;;;3.88;;
59468;SDS011;45277;52.768;18.262;2023-06-10T07:06:29;8.27;;;3.78;;
59468;SDS011;45277;52.768;18.262;2023-06-10T07:08:00;6.68;;;3.53;;
59468;SDS011;45277;52.768;18.262;2023-06-10T07:09:32;6.85;;;3.60;;
59468;SDS011;45277;52.768;18.262;2023-06-10T07:11:04;8.57;;;3.85;;
59468;SDS011;45277;52.768;18.262;2023-06-10T07:12:35;4.63;;;3.47;;
59468;SDS011;45277;52.768;18.262;2023-06-10T07:14:07;15.75;;;3.70;;
59468;SDS011;45277;52.768;18.262;2023-06-10T07:15:38;9.07;;;3.53;;
59468;SDS011;45277;52.768;18.262;2023-06-10T07:17:10;10.57;;;4.28;;
59468;SDS011;45277;52.768;18.262;2023-06-10T07:18:41;5.97;;;4.15;;
59468;SDS011;45277;52.768;18.262;2023-06-10T07:20:13;7.15;;;3.80;;
59468;SDS011;45277;52.768;18.262;2023-06-10T07:21:45;7.30;;;3.80;;
59468;SDS011;45277;52.768;18.262;2023-06-10T07:23:17;6.00;;;3.95;;
59468;SDS011;45277;52.768;18.262;2023-06-10T07:24:48;5.70;;;3.65;;
59468;SDS011;45277;52.768;18.262;2023-06-10T07:26:22;4.40;;;3.35;;
59468;SDS011;45277;52.768;18.262;2023-06-10T07:27:53;9.20;;;4.15;;
59468;SDS011;45277;52.768;18.262;2023-06-10T07:29:25;6.20;;;3.80;;
59468;SDS011;45277;52.768;18.262;2023-06-10T07:30:56;7.43;;;4.13;;
59468;SDS011;45277;52.768;18.262;2023-06-10T07:32:28;4.43;;;3.47;;
59468;SDS011;45277;52.768;18.262;2023-06-10T07:34:00;6.60;;;3.47;;
59468;SDS011;45277;52.768;18.262;2023-06-10T07:35:31;8.75;;;3.55;;
59468;SDS011;45277;52.768;18.262;2023-06-10T07:37:03;5.68;;;3.60;;
59468;SDS011;45277;52.768;18.262;2023-06-10T07:38:35;3.65;;;3.20;;
59468;SDS011;45277;52.768;18.262;2023-06-10T07:40:07;6.07;;;3.08;;
59468;SDS011;45277;52.768;18.262;2023-06-10T07:41:39;5.50;;;3.40;;
59468;SDS011;45277;52.768;18.262;2023-06-10T07:43:11;6.03;;;3.20;;
59468;SDS011;45277;52.768;18.262;2023-06-10T07:44:42;5.75;;;3.17;;
59468;SDS011;45277;52.768;18.262;2023-06-10T07:46:14;6.82;;;3.53;;
59468;SDS011;45277;52.768;18.262;2023-06-10T07:47:46;8.13;;;3.35;;
59468;SDS011;45277;52.768;18.262;2023-06-10T07:49:18;8.43;;;3.30;;
59468;SDS011;45277;52.768;18.262;2023-06-10T07:50:50;3.80;;;3.00;;
59468;SDS011;45277;52.768;18.262;2023-06-10T07:52:22;4.93;;;3.30;;
59468;SDS011;45277;52.768;18.262;2023-06-10T07:53:53;6.60;;;3.83;;
59468;SDS011;45277;52.768;18.262;2023-06-10T07:55:25;8.15;;;3.80;;
59468;SDS011;45277;52.768;18.262;2023-06-10T07:56:56;12.52;;;3.70;;
59468;SDS011;45277;52.768;18.262;2023-06-10T07:58:28;3.55;;;3.15;;
59468;SDS011;45277;52.768;18.262;2023-06-10T08:00:00;7.68;;;3.53;;
59468;SDS011;45277;52.768;18.262;2023-06-10T08:01:33;5.15;;;3.50;;
59468;SDS011;45277;52.768;18.262;2023-06-10T08:03:07;6.60;;;3.28;;
59468;SDS011;45277;52.768;18.262;2023-06-10T08:04:38;5.28;;;3.42;;
59468;SDS011;45277;52.768;18.262;2023-06-10T08:06:10;5.25;;;3.00;;
59468;SDS011;45277;52.768;18.262;2023-06-10T08:07:42;6.63;;;3.67;;
59468;SDS011;45277;52.768;18.262;2023-06-10T08:09:14;5.80;;;3.20;;
59468;SDS011;45277;52.768;18.262;2023-06-10T08:10:45;5.38;;;3.33;;
59468;SDS011;45277;52.768;18.262;2023-06-10T08:12:17;7.60;;;3.30;;
59468;SDS011;45277;52.768;18.262;2023-06-10T08:13:49;7.35;;;4.28;;
59468;SDS011;45277;52.768;18.262;2023-06-10T08:15:21;14.73;;;4.30;;
59468;SDS011;45277;52.768;18.262;2023-06-10T08:16:52;5.53;;;3.20;;
59468;SDS011;45277;52.768;18.262;2023-06-10T08:18:24;7.55;;;3.22;;
59468;SDS011;45277;52.768;18.262;2023-06-10T08:19:55;7.25;;;3.42;;
59468;SDS011;45277;52.768;18.262;2023-06-10T08:21:27;10.98;;;3.58;;
59468;SDS011;45277;52.768;18.262;2023-06-10T08:22:59;15.45;;;3.85;;
59468;SDS011;45277;52.768;18.262;2023-06-10T08:24:30;9.52;;;3.78;;
59468;SDS011;45277;52.768;18.262;2023-06-10T08:26:02;6.22;;;3.45;;
59468;SDS011;45277;52.768;18.262;2023-06-10T08:27:34;3.55;;;3.03;;
59468;SDS011;45277;52.768;18.262;2023-06-10T08:29:06;5.07;;;3.08;;
59468;SDS011;45277;52.768;18.262;2023-06-10T08:30:37;6.30;;;3.40;;
59468;SDS011;45277;52.768;18.262;2023-06-10T08:32:09;9.27;;;3.15;;
59468;SDS011;45277;52.768;18.262;2023-06-10T08:33:41;5.10;;;3.40;;
59468;SDS011;45277;52.768;18.262;2023-06-10T08:35:13;6.38;;;3.38;;
59468;SDS011;45277;52.768;18.262;2023-06-10T08:36:45;5.15;;;3.05;;
59468;SDS011;45277;52.768;18.262;2023-06-10T08:38:16;14.52;;;4.65;;
59468;SDS011;45277;52.768;18.262;2023-06-10T08:39:47;6.72;;;3.40;;
59468;SDS011;45277;52.768;18.262;2023-06-10T08:41:19;6.53;;;3.45;;
59468;SDS011;45277;52.768;18.262;2023-06-10T08:42:53;6.82;;;3.40;;
59468;SDS011;45277;52.768;18.262;2023-06-10T08:44:31;4.97;;;3.47;;
59468;SDS011;45277;52.768;18.262;2023-06-10T08:46:04;6.35;;;2.97;;
59468;SDS011;45277;52.768;18.262;2023-06-10T08:47:37;6.25;;;3.15;;
59468;SDS011;45277;52.768;18.262;2023-06-10T08:49:14;12.45;;;3.90;;
59468;SDS011;45277;52.768;18.262;2023-06-10T08:50:52;5.75;;;3.40;;
59468;SDS011;45277;52.768;18.262;2023-06-10T08:52:24;5.00;;;3.30;;
59468;SDS011;45277;52.768;18.262;2023-06-10T08:54:09;11.57;;;3.38;;
59468;SDS011;45277;52.768;18.262;2023-06-10T08:55:50;4.53;;;3.00;;
59468;SDS011;45277;52.768;18.262;2023-06-10T08:57:22;4.65;;;3.17;;
59468;SDS011;45277;52.768;18.262;2023-06-10T08:58:54;5.72;;;3.55;;
59468;SDS011;45277;52.768;18.262;2023-06-10T09:00:28;10.60;;;3.60;;
59468;SDS011;45277;52.768;18.262;2023-06-10T09:02:00;6.53;;;3.50;;
59468;SDS011;45277;52.768;18.262;2023-06-10T09:03:38;7.20;;;3.40;;
59468;SDS011;45277;52.768;18.262;2023-06-10T09:05:11;5.22;;;3.08;;
59468;SDS011;45277;52.768;18.262;2023-06-10T09:06:44;6.75;;;3.13;;
59468;SDS011;45277;52.768;18.262;2023-06-10T09:08:16;4.35;;;3.30;;
59468;SDS011;45277;52.768;18.262;2023-06-10T09:09:48;7.38;;;2.83;;
59468;SDS011;45277;52.768;18.262;2023-06-10T09:11:20;3.80;;;3.03;;